Le Mars Municipal Airport
Monday 1:15 PM
Weather Sunny
VFR
🚩
Temperature 75°
Dew Point 28°
Feels Like 75°
Relative Humidity 18
%
Visibility 10
mi
Pressure 1010.8
mb
Wind Direction SE
Wind Speed 24
mph
Last Hour Precip 0.00
"
KLRJ 151815Z AUTO 13021G28KT 10SM CLR 24/M02 A2985 RMK AO2

Recent Observations

Time Present Weather Temp DP Feels RH% Vsby Pressure Ceiling Direction Speed Gust 1h Precip
🚩
1:15PM
VFR
75° 28° 75° 18
%
10
mi
1010.8
mb
None SE 24
mph
32
mph
0.00"
KLRJ 151815Z AUTO 13021G28KT 10SM CLR 24/M02 A2985 RMK AO2
🚩
12:55PM
VFR
75° 28° 75° 18
%
10
mi
1011.2
mb
None E 22
mph
31
mph
0.00"
KLRJ 151755Z AUTO 10019G27KT 10SM CLR 24/M02 A2986 RMK AO2
🚩
12:35PM
VFR
73° 28° 73° 19
%
10
mi
1011.5
mb
None E 23
mph
37
mph
0.00"
KLRJ 151735Z AUTO 10020G32KT 10SM CLR 23/M02 A2987 RMK AO2
🚩
12:15PM
VFR
73° 28° 73° 19
%
10
mi
1012.2
mb
None ESE 23
mph
32
mph
0.00"
KLRJ 151715Z AUTO 11020G28KT 10SM CLR 23/M02 A2989 RMK AO2
🚩
11:55AM
VFR
73° 28° 73° 19
%
10
mi
1012.5
mb
None ESE 22
mph
31
mph
0.00"
KLRJ 151655Z AUTO 12019G27KT 10SM CLR 23/M02 A2990 RMK AO2
11:35AM
VFR
72° 28° 72° 20
%
10
mi
1012.9
mb
None ESE 18
mph
24
mph
0.00"
KLRJ 151635Z AUTO 12016G21KT 10SM CLR 22/M02 A2991 RMK AO2
🚩
11:15AM
VFR
70° 28° 70° 21
%
10
mi
1013.2
mb
None ESE 21
mph
29
mph
0.00"
KLRJ 151615Z AUTO 12018G25KT 10SM CLR 21/M02 A2992 RMK AO2
🚩
10:55AM
VFR
70° 28° 70° 21
%
10
mi
1013.2
mb
None ESE 17
mph
30
mph
0.00"
KLRJ 151555Z AUTO 12015G26KT 10SM CLR 21/M02 A2992 RMK AO2
🚩
10:35AM
VFR
68° 28° 68° 23
%
10
mi
1012.9
mb
None E 22
mph
30
mph
0.00"
KLRJ 151535Z AUTO 10019G26KT 10SM CLR 20/M02 A2991 RMK AO2
🚩
10:15AM
VFR
66° 28° 66° 24
%
10
mi
1012.9
mb
None ESE 20
mph
33
mph
0.00"
KLRJ 151515Z AUTO 12017G29KT 10SM CLR 19/M02 A2991 RMK AO2
9:55AM
VFR
64° 28° 64° 26
%
10
mi
1012.5
mb
None ESE 16
mph
26
mph
0.00"
KLRJ 151455Z AUTO 12014G23KT 10SM CLR 18/M02 A2990 RMK AO2
9:35AM
VFR
63° 28° 63° 27
%
10
mi
1012.5
mb
None ESE 16
mph
23
mph
0.00"
KLRJ 151435Z AUTO 11014G20KT 10SM CLR 17/M02 A2990 RMK AO2
9:15AM
VFR
63° 27° 63° 25
%
10
mi
1012.5
mb
None ESE 18
mph
26
mph
0.00"
KLRJ 151415Z AUTO 11016G23KT 10SM CLR 17/M03 A2990 RMK AO2
8:55AM
VFR
-RA 61° 28° 61° 29
%
10
mi
1012.9
mb
None E 15
mph
22
mph
0.00"
KLRJ 151355Z AUTO 10013G19KT 10SM -RA CLR 16/M02 A2991 RMK AO2
8:35AM
VFR
59° 28° 59° 31
%
10
mi
1013.2
mb
None ESE 13
mph
0.00"
KLRJ 151335Z AUTO 11011KT 10SM CLR 15/M02 A2992 RMK AO2
8:15AM
VFR
57° 28° 57° 33
%
10
mi
1013.5
mb
None E 10
mph
0.00"
KLRJ 151315Z AUTO 10009KT 10SM CLR 14/M02 A2993 RMK AO2
7:55AM
VFR
55° 28° 55° 35
%
10
mi
1013.5
mb
None ENE 8
mph
0.00"
KLRJ 151255Z AUTO 06007KT 10SM CLR 13/M02 A2993 RMK AO2
7:35AM
VFR
54° 28° 54° 38
%
10
mi
1013.2
mb
None NE 8
mph
0.00"
KLRJ 151235Z AUTO 05007KT 360V070 10SM CLR 12/M02 A2992 RMK AO2
7:15AM
VFR
52° 27° 52° 37
%
10
mi
1012.9
mb
None NE 9
mph
0.00"
KLRJ 151215Z AUTO 05008KT 10SM CLR 11/M03 A2991 RMK AO2
6:55AM
VFR
52° 27° 52° 37
%
10
mi
1012.5
mb
None NE 9
mph
0.00"
KLRJ 151155Z AUTO 04008KT 10SM CLR 11/M03 A2990 RMK AO2
Click here to show this page without METARs/TAFs included